sensor_id;sensor_type;location;lat;lon;timestamp;pressure;altitude;pressure_sealevel;temperature;humidity
21276;BME280;36472;52.170;20.884;2023-07-16T00:01:20;100210.22;;;23.05;61.95
21276;BME280;36472;52.170;20.884;2023-07-16T00:03:49;100207.53;;;23.05;62.20
21276;BME280;36472;52.170;20.884;2023-07-16T00:06:18;100206.72;;;23.04;62.54
21276;BME280;36472;52.170;20.884;2023-07-16T00:08:48;100208.75;;;23.02;62.28
21276;BME280;36472;52.170;20.884;2023-07-16T00:11:17;100196.38;;;23.01;62.29
21276;BME280;36472;52.170;20.884;2023-07-16T00:13:46;100203.38;;;23.02;62.74
21276;BME280;36472;52.170;20.884;2023-07-16T00:16:16;100211.59;;;23.01;62.48
21276;BME280;36472;52.170;20.884;2023-07-16T00:18:45;100204.13;;;22.96;63.24
21276;BME280;36472;52.170;20.884;2023-07-16T00:21:15;100201.47;;;22.96;62.74
21276;BME280;36472;52.170;20.884;2023-07-16T00:23:44;100203.09;;;22.97;62.87
21276;BME280;36472;52.170;20.884;2023-07-16T00:26:15;100198.78;;;22.96;63.59
21276;BME280;36472;52.170;20.884;2023-07-16T00:28:44;100198.41;;;22.84;63.91
21276;BME280;36472;52.170;20.884;2023-07-16T00:31:13;100197.69;;;22.75;64.21
21276;BME280;36472;52.170;20.884;2023-07-16T00:33:42;100193.50;;;22.73;64.33
21276;BME280;36472;52.170;20.884;2023-07-16T00:36:12;100199.41;;;22.68;64.55
21276;BME280;36472;52.170;20.884;2023-07-16T00:38:42;100197.31;;;22.64;64.81
21276;BME280;36472;52.170;20.884;2023-07-16T00:41:14;100193.78;;;22.63;64.61
21276;BME280;36472;52.170;20.884;2023-07-16T00:43:43;100196.00;;;22.59;65.18
21276;BME280;36472;52.170;20.884;2023-07-16T00:46:12;100201.91;;;22.55;65.08
21276;BME280;36472;52.170;20.884;2023-07-16T00:48:43;100197.28;;;22.49;65.35
21276;BME280;36472;52.170;20.884;2023-07-16T00:51:12;100209.00;;;22.48;65.45
21276;BME280;36472;52.170;20.884;2023-07-16T00:53:42;100202.19;;;22.45;65.63
21276;BME280;36472;52.170;20.884;2023-07-16T00:56:15;100205.84;;;22.44;65.47
21276;BME280;36472;52.170;20.884;2023-07-16T00:58:45;100202.53;;;22.42;65.28
21276;BME280;36472;52.170;20.884;2023-07-16T01:01:14;100194.22;;;22.37;65.43
21276;BME280;36472;52.170;20.884;2023-07-16T01:03:45;100199.56;;;22.37;65.00
21276;BME280;36472;52.170;20.884;2023-07-16T01:06:19;100196.72;;;22.38;65.03
21276;BME280;36472;52.170;20.884;2023-07-16T01:09:04;100187.00;;;22.37;65.16
21276;BME280;36472;52.170;20.884;2023-07-16T01:11:39;100181.88;;;22.36;65.25
21276;BME280;36472;52.170;20.884;2023-07-16T01:14:10;100183.88;;;22.34;65.11
21276;BME280;36472;52.170;20.884;2023-07-16T01:16:40;100182.41;;;22.31;65.06
21276;BME280;36472;52.170;20.884;2023-07-16T01:19:10;100180.09;;;22.28;65.52
21276;BME280;36472;52.170;20.884;2023-07-16T01:21:47;100170.53;;;22.26;65.37
21276;BME280;36472;52.170;20.884;2023-07-16T01:24:59;100166.38;;;22.23;65.38
21276;BME280;36472;52.170;20.884;2023-07-16T01:32:07;100171.09;;;22.21;65.74
21276;BME280;36472;52.170;20.884;2023-07-16T01:34:40;100167.97;;;22.17;65.73
21276;BME280;36472;52.170;20.884;2023-07-16T01:37:10;100164.72;;;22.22;65.66
21276;BME280;36472;52.170;20.884;2023-07-16T01:39:39;100164.06;;;22.20;65.70
21276;BME280;36472;52.170;20.884;2023-07-16T01:42:09;100166.09;;;22.18;65.80
21276;BME280;36472;52.170;20.884;2023-07-16T01:44:40;100157.59;;;22.14;66.25
21276;BME280;36472;52.170;20.884;2023-07-16T01:47:20;100156.28;;;22.10;66.47
21276;BME280;36472;52.170;20.884;2023-07-16T01:49:51;100155.47;;;22.10;66.72
21276;BME280;36472;52.170;20.884;2023-07-16T01:52:20;100161.47;;;22.12;66.62
21276;BME280;36472;52.170;20.884;2023-07-16T01:54:49;100157.84;;;22.04;67.07
21276;BME280;36472;52.170;20.884;2023-07-16T01:57:21;100153.53;;;22.03;67.06
21276;BME280;36472;52.170;20.884;2023-07-16T01:59:50;100152.84;;;22.01;67.31
21276;BME280;36472;52.170;20.884;2023-07-16T02:02:21;100152.84;;;22.01;67.48
21276;BME280;36472;52.170;20.884;2023-07-16T02:04:50;100153.88;;;22.00;67.71
21276;BME280;36472;52.170;20.884;2023-07-16T02:07:19;100159.25;;;22.00;67.67
21276;BME280;36472;52.170;20.884;2023-07-16T02:09:48;100141.50;;;21.99;67.53
21276;BME280;36472;52.170;20.884;2023-07-16T02:12:17;100148.59;;;21.92;67.96
21276;BME280;36472;52.170;20.884;2023-07-16T02:14:46;100143.97;;;21.86;68.51
21276;BME280;36472;52.170;20.884;2023-07-16T02:17:15;100144.81;;;21.87;68.64
21276;BME280;36472;52.170;20.884;2023-07-16T02:19:45;100143.78;;;21.88;68.44
21276;BME280;36472;52.170;20.884;2023-07-16T02:22:14;100148.50;;;21.85;68.86
21276;BME280;36472;52.170;20.884;2023-07-16T02:24:43;100153.84;;;21.85;68.87
21276;BME280;36472;52.170;20.884;2023-07-16T02:27:13;100146.81;;;21.84;68.55
21276;BME280;36472;52.170;20.884;2023-07-16T02:29:42;100146.53;;;21.79;68.90
21276;BME280;36472;52.170;20.884;2023-07-16T02:32:11;100136.38;;;21.75;69.15
21276;BME280;36472;52.170;20.884;2023-07-16T02:34:40;100140.41;;;21.71;69.20
21276;BME280;36472;52.170;20.884;2023-07-16T02:37:11;100140.06;;;21.74;69.64
21276;BME280;36472;52.170;20.884;2023-07-16T02:39:43;100134.72;;;21.74;69.98
21276;BME280;36472;52.170;20.884;2023-07-16T02:42:15;100138.94;;;21.68;70.04
21276;BME280;36472;52.170;20.884;2023-07-16T02:44:44;100138.47;;;21.64;70.65
21276;BME280;36472;52.170;20.884;2023-07-16T02:47:13;100141.78;;;21.66;70.27
21276;BME280;36472;52.170;20.884;2023-07-16T02:49:42;100137.91;;;21.69;70.24
21276;BME280;36472;52.170;20.884;2023-07-16T02:52:12;100140.41;;;21.71;70.56
21276;BME280;36472;52.170;20.884;2023-07-16T02:54:41;100142.44;;;21.69;70.64
21276;BME280;36472;52.170;20.884;2023-07-16T02:57:10;100140.75;;;21.67;70.67
21276;BME280;36472;52.170;20.884;2023-07-16T02:59:39;100139.75;;;21.69;70.70
21276;BME280;36472;52.170;20.884;2023-07-16T03:02:08;100135.41;;;21.67;70.91
21276;BME280;36472;52.170;20.884;2023-07-16T03:04:37;100139.13;;;21.66;71.17
21276;BME280;36472;52.170;20.884;2023-07-16T03:07:06;100129.59;;;21.64;71.25
21276;BME280;36472;52.170;20.884;2023-07-16T03:09:36;100128.13;;;21.61;71.57
21276;BME280;36472;52.170;20.884;2023-07-16T03:12:07;100134.59;;;21.67;71.32
21276;BME280;36472;52.170;20.884;2023-07-16T03:14:36;100138.75;;;21.70;71.33
21276;BME280;36472;52.170;20.884;2023-07-16T03:17:05;100141.44;;;21.70;71.58
21276;BME280;36472;52.170;20.884;2023-07-16T03:19:35;100145.09;;;21.69;71.67
21276;BME280;36472;52.170;20.884;2023-07-16T03:22:04;100149.47;;;21.70;71.72
21276;BME280;36472;52.170;20.884;2023-07-16T03:24:35;100149.47;;;21.70;71.64
21276;BME280;36472;52.170;20.884;2023-07-16T03:27:06;100153.25;;;21.75;71.78
21276;BME280;36472;52.170;20.884;2023-07-16T03:29:46;100156.63;;;21.69;72.00
21276;BME280;36472;52.170;20.884;2023-07-16T03:32:18;100154.25;;;21.74;71.95
21276;BME280;36472;52.170;20.884;2023-07-16T03:34:47;100161.09;;;21.77;71.99
21276;BME280;36472;52.170;20.884;2023-07-16T03:37:16;100162.78;;;21.78;71.85
21276;BME280;36472;52.170;20.884;2023-07-16T03:39:49;100163.41;;;21.80;71.97
21276;BME280;36472;52.170;20.884;2023-07-16T03:42:18;100159.06;;;21.79;72.23
21276;BME280;36472;52.170;20.884;2023-07-16T03:44:50;100161.41;;;21.82;72.29
21276;BME280;36472;52.170;20.884;2023-07-16T03:47:19;100162.88;;;21.84;72.52
21276;BME280;36472;52.170;20.884;2023-07-16T03:49:48;100165.34;;;21.86;72.51
21276;BME280;36472;52.170;20.884;2023-07-16T03:52:17;100168.63;;;21.96;72.52
21276;BME280;36472;52.170;20.884;2023-07-16T03:54:46;100170.75;;;22.24;71.29
21276;BME280;36472;52.170;20.884;2023-07-16T03:57:17;100171.06;;;22.29;71.03
21276;BME280;36472;52.170;20.884;2023-07-16T03:59:45;100175.41;;;22.22;71.75
21276;BME280;36472;52.170;20.884;2023-07-16T04:02:15;100169.31;;;22.13;72.15
21276;BME280;36472;52.170;20.884;2023-07-16T04:04:44;100177.34;;;22.13;72.41
21276;BME280;36472;52.170;20.884;2023-07-16T04:07:13;100178.84;;;22.16;72.71
21276;BME280;36472;52.170;20.884;2023-07-16T04:09:41;100174.50;;;22.15;72.72
21276;BME280;36472;52.170;20.884;2023-07-16T04:12:10;100170.81;;;22.16;73.12
21276;BME280;36472;52.170;20.884;2023-07-16T04:14:41;100173.41;;;22.24;72.83
21276;BME280;36472;52.170;20.884;2023-07-16T04:17:10;100172.56;;;22.23;72.65
21276;BME280;36472;52.170;20.884;2023-07-16T04:19:39;100170.53;;;22.26;73.03
21276;BME280;36472;52.170;20.884;2023-07-16T04:22:08;100168.00;;;22.32;72.96
21276;BME280;36472;52.170;20.884;2023-07-16T04:24:37;100162.63;;;22.32;73.10
21276;BME280;36472;52.170;20.884;2023-07-16T04:27:06;100162.19;;;22.44;72.63
21276;BME280;36472;52.170;20.884;2023-07-16T04:29:35;100169.69;;;22.48;73.00
21276;BME280;36472;52.170;20.884;2023-07-16T04:32:06;100161.47;;;22.50;72.83
21276;BME280;36472;52.170;20.884;2023-07-16T04:34:35;100170.34;;;22.65;73.13
21276;BME280;36472;52.170;20.884;2023-07-16T04:37:05;100168.94;;;22.69;72.76
21276;BME280;36472;52.170;20.884;2023-07-16T04:39:33;100176.25;;;22.75;72.68
21276;BME280;36472;52.170;20.884;2023-07-16T04:42:03;100175.84;;;22.78;72.88
21276;BME280;36472;52.170;20.884;2023-07-16T04:44:32;100178.44;;;22.87;72.97
21276;BME280;36472;52.170;20.884;2023-07-16T04:47:01;100185.00;;;22.99;72.48
21276;BME280;36472;52.170;20.884;2023-07-16T04:49:35;100184.91;;;23.07;71.69
21276;BME280;36472;52.170;20.884;2023-07-16T04:52:06;100176.78;;;23.15;71.87
21276;BME280;36472;52.170;20.884;2023-07-16T04:54:36;100173.44;;;23.28;71.02
21276;BME280;36472;52.170;20.884;2023-07-16T04:57:07;100173.53;;;23.35;71.14
21276;BME280;36472;52.170;20.884;2023-07-16T04:59:36;100172.09;;;23.39;70.12
21276;BME280;36472;52.170;20.884;2023-07-16T05:02:06;100175.69;;;23.46;70.71
21276;BME280;36472;52.170;20.884;2023-07-16T05:04:36;100174.50;;;23.49;70.21
21276;BME280;36472;52.170;20.884;2023-07-16T05:07:05;100176.00;;;23.58;70.12
21276;BME280;36472;52.170;20.884;2023-07-16T05:09:34;100181.72;;;23.70;70.24
21276;BME280;36472;52.170;20.884;2023-07-16T05:12:04;100184.75;;;23.82;69.14
21276;BME280;36472;52.170;20.884;2023-07-16T05:14:44;100179.63;;;23.87;69.31
21276;BME280;36472;52.170;20.884;2023-07-16T05:17:14;100178.53;;;24.03;69.08
21276;BME280;36472;52.170;20.884;2023-07-16T05:19:44;100178.00;;;24.14;68.82
21276;BME280;36472;52.170;20.884;2023-07-16T05:31:19;100163.09;;;24.68;66.64
21276;BME280;36472;52.170;20.884;2023-07-16T05:33:48;100160.94;;;24.92;66.27
21276;BME280;36472;52.170;20.884;2023-07-16T05:36:18;100162.91;;;25.18;65.17
21276;BME280;36472;52.170;20.884;2023-07-16T05:38:47;100158.25;;;25.47;64.05
21276;BME280;36472;52.170;20.884;2023-07-16T05:41:16;100166.97;;;25.75;62.99
21276;BME280;36472;52.170;20.884;2023-07-16T05:43:47;100154.19;;;26.11;61.69
21276;BME280;36472;52.170;20.884;2023-07-16T05:46:16;100160.34;;;26.52;60.26
21276;BME280;36472;52.170;20.884;2023-07-16T05:48:46;100157.78;;;26.83;59.71
21276;BME280;36472;52.170;20.884;2023-07-16T05:51:15;100161.44;;;27.09;58.99
21276;BME280;36472;52.170;20.884;2023-07-16T05:53:45;100172.13;;;27.29;57.53
21276;BME280;36472;52.170;20.884;2023-07-16T05:56:15;100189.53;;;27.40;57.10
21276;BME280;36472;52.170;20.884;2023-07-16T05:58:44;100185.34;;;27.44;56.87
21276;BME280;36472;52.170;20.884;2023-07-16T06:01:13;100189.19;;;27.61;56.87
21276;BME280;36472;52.170;20.884;2023-07-16T06:03:42;100193.84;;;27.79;55.72
21276;BME280;36472;52.170;20.884;2023-07-16T06:06:11;100178.63;;;27.92;56.08
21276;BME280;36472;52.170;20.884;2023-07-16T06:08:40;100185.50;;;28.13;54.66
21276;BME280;36472;52.170;20.884;2023-07-16T06:11:12;100192.56;;;28.39;54.09
21276;BME280;36472;52.170;20.884;2023-07-16T06:13:41;100189.94;;;28.51;53.67
21276;BME280;36472;52.170;20.884;2023-07-16T06:16:10;100182.84;;;28.57;52.97
21276;BME280;36472;52.170;20.884;2023-07-16T06:18:40;100189.38;;;28.67;52.94
21276;BME280;36472;52.170;20.884;2023-07-16T06:21:09;100194.47;;;28.76;52.83
21276;BME280;36472;52.170;20.884;2023-07-16T06:23:38;100197.72;;;28.84;52.63
21276;BME280;36472;52.170;20.884;2023-07-16T06:26:07;100194.09;;;29.09;52.33
21276;BME280;36472;52.170;20.884;2023-07-16T06:28:38;100196.34;;;29.31;51.13
21276;BME280;36472;52.170;20.884;2023-07-16T06:31:07;100204.28;;;29.44;50.47
21276;BME280;36472;52.170;20.884;2023-07-16T06:33:36;100201.63;;;29.56;50.13
21276;BME280;36472;52.170;20.884;2023-07-16T06:36:05;100199.72;;;29.56;51.02
21276;BME280;36472;52.170;20.884;2023-07-16T06:38:34;100199.91;;;29.73;49.06
21276;BME280;36472;52.170;20.884;2023-07-16T06:41:03;100207.50;;;29.83;50.45
21276;BME280;36472;52.170;20.884;2023-07-16T06:43:32;100206.56;;;30.01;49.22
21276;BME280;36472;52.170;20.884;2023-07-16T06:46:02;100218.38;;;30.18;48.79
21276;BME280;36472;52.170;20.884;2023-07-16T06:48:31;100213.44;;;30.27;48.53
21276;BME280;36472;52.170;20.884;2023-07-16T06:51:00;100213.47;;;30.51;48.47
21276;BME280;36472;52.170;20.884;2023-07-16T06:53:29;100234.44;;;30.55;47.45
21276;BME280;36472;52.170;20.884;2023-07-16T07:05:06;100226.72;;;31.11;45.90
21276;BME280;36472;52.170;20.884;2023-07-16T07:07:35;100212.34;;;31.40;46.42
21276;BME280;36472;52.170;20.884;2023-07-16T07:10:06;100224.00;;;31.52;45.43
21276;BME280;36472;52.170;20.884;2023-07-16T07:12:34;100224.78;;;31.64;45.45
21276;BME280;36472;52.170;20.884;2023-07-16T07:15:07;100230.19;;;31.64;43.99
21276;BME280;36472;52.170;20.884;2023-07-16T07:17:36;100225.34;;;31.66;44.14
21276;BME280;36472;52.170;20.884;2023-07-16T07:20:09;100230.84;;;31.55;44.30
21276;BME280;36472;52.170;20.884;2023-07-16T07:22:38;100233.41;;;31.61;44.71
21276;BME280;36472;52.170;20.884;2023-07-16T07:25:07;100244.63;;;31.82;45.07
21276;BME280;36472;52.170;20.884;2023-07-16T07:27:36;100233.88;;;32.04;43.66
21276;BME280;36472;52.170;20.884;2023-07-16T07:30:07;100219.22;;;32.05;43.35
21276;BME280;36472;52.170;20.884;2023-07-16T07:32:37;100219.66;;;32.14;43.29
21276;BME280;36472;52.170;20.884;2023-07-16T07:39:40;100198.38;;;32.44;43.30
21276;BME280;36472;52.170;20.884;2023-07-16T07:42:09;100195.91;;;32.43;42.95
21276;BME280;36472;52.170;20.884;2023-07-16T07:49:11;100198.00;;;32.75;42.03
21276;BME280;36472;52.170;20.884;2023-07-16T07:51:40;100196.53;;;32.67;41.80
21276;BME280;36472;52.170;20.884;2023-07-16T07:54:09;100203.63;;;32.68;41.10
21276;BME280;36472;52.170;20.884;2023-07-16T07:56:40;100188.63;;;32.66;40.85
21276;BME280;36472;52.170;20.884;2023-07-16T07:59:09;100185.34;;;32.86;40.07
21276;BME280;36472;52.170;20.884;2023-07-16T08:01:38;100186.78;;;33.15;41.26
21276;BME280;36472;52.170;20.884;2023-07-16T08:04:07;100189.75;;;33.14;39.79
21276;BME280;36472;52.170;20.884;2023-07-16T08:06:36;100192.28;;;33.21;40.04
21276;BME280;36472;52.170;20.884;2023-07-16T08:09:05;100191.59;;;33.30;39.82
21276;BME280;36472;52.170;20.884;2023-07-16T08:11:34;100176.50;;;33.45;39.42
21276;BME280;36472;52.170;20.884;2023-07-16T08:14:04;100165.44;;;33.57;38.83
21276;BME280;36472;52.170;20.884;2023-07-16T08:16:33;100151.97;;;33.72;37.64
21276;BME280;36472;52.170;20.884;2023-07-16T08:19:02;100174.63;;;33.78;37.06
21276;BME280;36472;52.170;20.884;2023-07-16T08:21:32;100166.88;;;33.97;36.95
21276;BME280;36472;52.170;20.884;2023-07-16T08:24:01;100165.06;;;34.13;36.63
21276;BME280;36472;52.170;20.884;2023-07-16T08:26:30;100161.63;;;34.22;35.66
21276;BME280;36472;52.170;20.884;2023-07-16T08:28:59;100168.09;;;34.16;36.10
21276;BME280;36472;52.170;20.884;2023-07-16T08:31:31;100166.91;;;34.39;35.49
21276;BME280;36472;52.170;20.884;2023-07-16T08:34:00;100159.78;;;34.38;36.28
21276;BME280;36472;52.170;20.884;2023-07-16T08:36:32;100169.94;;;34.48;36.45
21276;BME280;36472;52.170;20.884;2023-07-16T08:39:01;100165.59;;;34.52;36.54
21276;BME280;36472;52.170;20.884;2023-07-16T08:41:31;100165.63;;;34.62;36.79
21276;BME280;36472;52.170;20.884;2023-07-16T08:44:00;100159.72;;;34.76;36.82
21276;BME280;36472;52.170;20.884;2023-07-16T08:46:31;100162.75;;;34.79;36.68
21276;BME280;36472;52.170;20.884;2023-07-16T08:49:03;100155.41;;;34.85;36.07
21276;BME280;36472;52.170;20.884;2023-07-16T08:56:04;100165.00;;;35.03;35.51
21276;BME280;36472;52.170;20.884;2023-07-16T08:58:34;100153.81;;;34.99;35.41
21276;BME280;36472;52.170;20.884;2023-07-16T09:01:06;100166.66;;;35.09;35.69
21276;BME280;36472;52.170;20.884;2023-07-16T09:03:36;100163.16;;;35.19;35.05
21276;BME280;36472;52.170;20.884;2023-07-16T09:06:05;100164.28;;;35.23;34.89
21276;BME280;36472;52.170;20.884;2023-07-16T09:08:34;100167.78;;;35.18;35.04
21276;BME280;36472;52.170;20.884;2023-07-16T09:11:04;100165.88;;;35.19;34.32
21276;BME280;36472;52.170;20.884;2023-07-16T09:13:33;100158.22;;;35.21;34.20
21276;BME280;36472;52.170;20.884;2023-07-16T09:16:03;100152.75;;;35.16;34.61
21276;BME280;36472;52.170;20.884;2023-07-16T09:23:05;100152.53;;;35.28;34.70
21276;BME280;36472;52.170;20.884;2023-07-16T09:25:34;100150.38;;;35.45;36.31
21276;BME280;36472;52.170;20.884;2023-07-16T09:28:04;100146.84;;;35.60;34.71
21276;BME280;36472;52.170;20.884;2023-07-16T09:30:34;100141.94;;;35.78;35.33
21276;BME280;36472;52.170;20.884;2023-07-16T09:33:10;100143.53;;;35.89;35.21
21276;BME280;36472;52.170;20.884;2023-07-16T09:35:40;100132.06;;;35.92;34.03
21276;BME280;36472;52.170;20.884;2023-07-16T09:38:11;100134.78;;;36.02;33.74
21276;BME280;36472;52.170;20.884;2023-07-16T09:40:40;100143.50;;;36.09;33.35
21276;BME280;36472;52.170;20.884;2023-07-16T09:43:11;100149.25;;;36.18;32.92
21276;BME280;36472;52.170;20.884;2023-07-16T09:45:42;100137.75;;;36.26;32.37
21276;BME280;36472;52.170;20.884;2023-07-16T09:48:12;100143.78;;;36.28;33.01
21276;BME280;36472;52.170;20.884;2023-07-16T09:50:49;100130.63;;;36.36;33.46
21276;BME280;36472;52.170;20.884;2023-07-16T09:53:23;100137.97;;;36.56;32.21
21276;BME280;36472;52.170;20.884;2023-07-16T09:55:56;100132.97;;;36.68;32.66
21276;BME280;36472;52.170;20.884;2023-07-16T09:58:27;100142.72;;;36.90;31.90
21276;BME280;36472;52.170;20.884;2023-07-16T10:00:58;100149.88;;;36.85;31.58
21276;BME280;36472;52.170;20.884;2023-07-16T10:03:28;100142.22;;;36.82;32.14
21276;BME280;36472;52.170;20.884;2023-07-16T10:06:06;100132.72;;;36.69;32.13
21276;BME280;36472;52.170;20.884;2023-07-16T10:13:12;100143.53;;;36.95;31.90
21276;BME280;36472;52.170;20.884;2023-07-16T10:15:52;100139.53;;;36.67;32.23
21276;BME280;36472;52.170;20.884;2023-07-16T10:22:53;100135.88;;;36.11;33.59
21276;BME280;36472;52.170;20.884;2023-07-16T10:25:24;100122.50;;;36.00;34.58
21276;BME280;36472;52.170;20.884;2023-07-16T10:27:54;100122.81;;;35.78;35.31
21276;BME280;36472;52.170;20.884;2023-07-16T10:30:24;100124.44;;;35.73;36.17
21276;BME280;36472;52.170;20.884;2023-07-16T10:32:53;100124.97;;;35.65;35.34
21276;BME280;36472;52.170;20.884;2023-07-16T10:35:22;100130.44;;;35.60;35.71
21276;BME280;36472;52.170;20.884;2023-07-16T10:42:27;100130.97;;;35.47;37.19
21276;BME280;36472;52.170;20.884;2023-07-16T10:44:59;100139.44;;;35.61;36.95
21276;BME280;36472;52.170;20.884;2023-07-16T10:47:33;100132.06;;;35.71;35.48
21276;BME280;36472;52.170;20.884;2023-07-16T10:50:06;100135.63;;;35.67;35.68
21276;BME280;36472;52.170;20.884;2023-07-16T10:52:36;100137.78;;;35.65;36.53
21276;BME280;36472;52.170;20.884;2023-07-16T10:55:09;100133.19;;;35.81;35.82
21276;BME280;36472;52.170;20.884;2023-07-16T10:57:38;100133.41;;;36.10;35.19
21276;BME280;36472;52.170;20.884;2023-07-16T11:00:13;100131.16;;;36.43;35.54
21276;BME280;36472;52.170;20.884;2023-07-16T11:02:44;100135.72;;;36.73;33.66
21276;BME280;36472;52.170;20.884;2023-07-16T11:05:15;100143.16;;;37.12;33.13
21276;BME280;36472;52.170;20.884;2023-07-16T11:07:47;100139.03;;;37.54;32.39
21276;BME280;36472;52.170;20.884;2023-07-16T11:10:24;100145.97;;;37.81;32.42
21276;BME280;36472;52.170;20.884;2023-07-16T11:12:55;100142.13;;;37.82;31.80
21276;BME280;36472;52.170;20.884;2023-07-16T11:15:34;100134.03;;;37.96;32.09
21276;BME280;36472;52.170;20.884;2023-07-16T11:18:06;100128.25;;;37.68;31.48
21276;BME280;36472;52.170;20.884;2023-07-16T11:20:36;100135.47;;;37.14;32.35
21276;BME280;36472;52.170;20.884;2023-07-16T11:23:05;100144.16;;;36.82;33.19
21276;BME280;36472;52.170;20.884;2023-07-16T11:25:34;100148.13;;;37.05;33.57
21276;BME280;36472;52.170;20.884;2023-07-16T11:28:04;100141.53;;;37.11;33.61
21276;BME280;36472;52.170;20.884;2023-07-16T11:30:33;100144.16;;;37.32;33.49
21276;BME280;36472;52.170;20.884;2023-07-16T11:37:36;100152.16;;;36.58;34.42
21276;BME280;36472;52.170;20.884;2023-07-16T11:40:08;100149.81;;;36.30;35.18
21276;BME280;36472;52.170;20.884;2023-07-16T11:42:39;100145.94;;;36.31;35.48
21276;BME280;36472;52.170;20.884;2023-07-16T11:45:16;100158.84;;;36.26;34.92
21276;BME280;36472;52.170;20.884;2023-07-16T11:47:46;100162.94;;;36.18;34.92
21276;BME280;36472;52.170;20.884;2023-07-16T11:50:15;100155.84;;;35.97;35.29
21276;BME280;36472;52.170;20.884;2023-07-16T11:52:54;100158.34;;;35.83;35.45
21276;BME280;36472;52.170;20.884;2023-07-16T11:55:23;100160.22;;;35.67;35.47
21276;BME280;36472;52.170;20.884;2023-07-16T11:57:53;100164.59;;;35.63;35.16
21276;BME280;36472;52.170;20.884;2023-07-16T12:00:24;100161.03;;;35.67;35.55
21276;BME280;36472;52.170;20.884;2023-07-16T12:02:53;100165.97;;;35.65;34.81
21276;BME280;36472;52.170;20.884;2023-07-16T12:05:23;100165.69;;;35.56;35.33
21276;BME280;36472;52.170;20.884;2023-07-16T12:08:15;100154.50;;;35.79;35.01
21276;BME280;36472;52.170;20.884;2023-07-16T12:10:44;100158.56;;;35.71;34.64
21276;BME280;36472;52.170;20.884;2023-07-16T12:13:13;100156.13;;;35.54;34.55
21276;BME280;36472;52.170;20.884;2023-07-16T12:15:42;100168.94;;;35.38;34.52
21276;BME280;36472;52.170;20.884;2023-07-16T12:18:11;100159.34;;;35.25;35.02
21276;BME280;36472;52.170;20.884;2023-07-16T12:20:40;100162.63;;;35.27;35.05
21276;BME280;36472;52.170;20.884;2023-07-16T12:23:09;100152.75;;;35.11;35.05
21276;BME280;36472;52.170;20.884;2023-07-16T12:25:40;100156.59;;;35.20;34.14
21276;BME280;36472;52.170;20.884;2023-07-16T12:28:11;100148.09;;;35.11;34.89
21276;BME280;36472;52.170;20.884;2023-07-16T12:30:40;100159.28;;;35.10;35.75
21276;BME280;36472;52.170;20.884;2023-07-16T12:33:09;100171.03;;;35.20;35.38
21276;BME280;36472;52.170;20.884;2023-07-16T12:35:38;100156.81;;;35.08;34.13
21276;BME280;36472;52.170;20.884;2023-07-16T12:38:07;100154.28;;;34.81;35.20
21276;BME280;36472;52.170;20.884;2023-07-16T12:40:36;100155.97;;;34.87;34.79
21276;BME280;36472;52.170;20.884;2023-07-16T12:43:09;100162.22;;;34.88;35.11
21276;BME280;36472;52.170;20.884;2023-07-16T12:45:38;100160.88;;;34.90;34.43
21276;BME280;36472;52.170;20.884;2023-07-16T12:48:07;100152.41;;;34.87;34.05
21276;BME280;36472;52.170;20.884;2023-07-16T12:50:36;100160.19;;;34.67;34.87
21276;BME280;36472;52.170;20.884;2023-07-16T12:53:05;100154.78;;;34.73;34.74
21276;BME280;36472;52.170;20.884;2023-07-16T12:55:34;100153.09;;;34.61;34.83
21276;BME280;36472;52.170;20.884;2023-07-16T12:58:03;100164.53;;;34.58;35.09
21276;BME280;36472;52.170;20.884;2023-07-16T13:00:33;100170.03;;;34.63;33.99
21276;BME280;36472;52.170;20.884;2023-07-16T13:03:02;100156.84;;;34.50;33.75
21276;BME280;36472;52.170;20.884;2023-07-16T13:05:32;100153.88;;;34.52;34.60
21276;BME280;36472;52.170;20.884;2023-07-16T13:08:01;100165.56;;;34.47;34.61
21276;BME280;36472;52.170;20.884;2023-07-16T13:10:30;100161.09;;;34.25;34.52
21276;BME280;36472;52.170;20.884;2023-07-16T13:13:00;100158.28;;;34.15;34.84
21276;BME280;36472;52.170;20.884;2023-07-16T13:15:32;100163.16;;;34.08;34.52
21276;BME280;36472;52.170;20.884;2023-07-16T13:18:02;100163.66;;;34.05;34.99
21276;BME280;36472;52.170;20.884;2023-07-16T13:20:31;100169.75;;;34.17;34.07
21276;BME280;36472;52.170;20.884;2023-07-16T13:23:00;100166.72;;;34.14;34.10
21276;BME280;36472;52.170;20.884;2023-07-16T13:25:30;100176.78;;;34.08;34.42
21276;BME280;36472;52.170;20.884;2023-07-16T13:27:59;100178.38;;;34.04;34.40
21276;BME280;36472;52.170;20.884;2023-07-16T13:30:28;100172.28;;;33.91;34.81
21276;BME280;36472;52.170;20.884;2023-07-16T13:32:59;100174.88;;;33.76;34.78
21276;BME280;36472;52.170;20.884;2023-07-16T13:35:28;100173.38;;;33.63;35.36
21276;BME280;36472;52.170;20.884;2023-07-16T13:37:58;100180.72;;;33.63;35.34
21276;BME280;36472;52.170;20.884;2023-07-16T13:40:26;100174.38;;;33.52;35.46
21276;BME280;36472;52.170;20.884;2023-07-16T13:42:56;100174.59;;;33.45;35.51
21276;BME280;36472;52.170;20.884;2023-07-16T13:45:24;100168.84;;;33.42;36.29
21276;BME280;36472;52.170;20.884;2023-07-16T13:47:54;100163.47;;;33.52;35.89
21276;BME280;36472;52.170;20.884;2023-07-16T13:50:24;100172.38;;;33.69;35.49
21276;BME280;36472;52.170;20.884;2023-07-16T13:52:53;100172.41;;;33.75;35.46
21276;BME280;36472;52.170;20.884;2023-07-16T13:55:22;100177.31;;;33.72;35.30